createdAt,value
2023-05-23T00:03:59.623Z,99970.95
2023-05-23T00:09:07.087Z,99967.98
2023-05-23T00:14:15.079Z,99962.91
2023-05-23T00:19:22.060Z,99963.33
2023-05-23T00:24:29.203Z,99956.95
2023-05-23T00:29:36.206Z,99960.89
2023-05-23T00:34:43.514Z,99961.77
2023-05-23T00:39:50.714Z,99958.77
2023-05-23T00:44:58.003Z,99951.98
2023-05-23T00:50:05.068Z,99948.03
2023-05-23T00:55:13.196Z,99943.01
2023-05-23T01:00:21.057Z,99940.55
2023-05-23T01:05:28.270Z,99944.44
2023-05-23T01:10:35.448Z,99939.21
2023-05-23T01:15:50.109Z,99933.08
2023-05-23T01:21:01.672Z,99936.72
2023-05-23T01:26:15.059Z,99941.89
2023-05-23T01:31:23.742Z,99940.67
2023-05-23T01:36:35.454Z,99940.77
2023-05-23T01:41:42.534Z,99937.97
2023-05-23T01:46:50.022Z,99933.45
2023-05-23T01:51:57.184Z,99923.55
2023-05-23T01:57:06.059Z,99924.16
2023-05-23T02:02:13.520Z,99922.33
2023-05-23T02:07:23.622Z,99917.64
2023-05-23T02:12:30.807Z,99911.29
2023-05-23T02:17:41.589Z,99903.20
2023-05-23T02:22:49.365Z,99895.97
2023-05-23T02:27:56.331Z,99896.14
2023-05-23T02:33:08.135Z,99896.15
2023-05-23T02:38:15.604Z,99891.18
2023-05-23T02:43:22.745Z,99890.52
2023-05-23T02:48:29.872Z,99889.20
2023-05-23T02:53:36.955Z,99887.55
2023-05-23T02:58:43.965Z,99887.52
2023-05-23T03:03:51.247Z,99885.88
2023-05-23T03:08:58.337Z,99884.10
2023-05-23T03:14:06.086Z,99878.86
2023-05-23T03:19:13.255Z,99878.23
2023-05-23T03:24:20.355Z,99870.88
2023-05-23T03:29:30.181Z,99865.09
2023-05-23T03:34:38.902Z,99860.26
2023-05-23T03:39:46.545Z,99858.36
2023-05-23T03:44:53.600Z,99855.54
2023-05-23T03:50:02.173Z,99855.99
2023-05-23T03:55:11.539Z,99849.55
2023-05-23T04:00:20.178Z,99848.26
2023-05-23T04:05:29.925Z,99845.11
2023-05-23T04:10:37.307Z,99846.77
2023-05-23T04:15:45.395Z,99845.73
2023-05-23T04:20:53.379Z,99845.52
2023-05-23T04:26:01.166Z,99839.10
2023-05-23T04:31:13.944Z,99834.75
2023-05-23T04:36:23.823Z,99832.31
2023-05-23T04:41:34.353Z,99824.98
2023-05-23T04:46:45.776Z,99828.73
2023-05-23T04:52:07.588Z,99823.67
2023-05-23T04:57:38.004Z,99814.58
2023-05-23T05:02:46.579Z,99808.39
2023-05-23T05:07:53.728Z,99811.45
2023-05-23T05:13:00.755Z,99814.88
2023-05-23T05:18:14.837Z,99797.52
2023-05-23T05:23:24.074Z,99794.91
2023-05-23T05:28:31.138Z,99791.85
2023-05-23T05:33:39.516Z,99787.38
2023-05-23T05:38:49.558Z,99789.38
2023-05-23T05:43:58.451Z,99792.58
2023-05-23T05:49:05.453Z,99789.95
2023-05-23T05:54:12.561Z,99790.06
2023-05-23T05:59:19.510Z,99792.35
2023-05-23T06:04:26.973Z,99787.89
2023-05-23T06:09:35.330Z,99781.10
2023-05-23T06:14:42.909Z,99785.05
2023-05-23T06:19:50.800Z,99776.88
2023-05-23T06:24:59.375Z,99772.49
2023-05-23T06:30:08.303Z,99777.05
2023-05-23T06:35:15.453Z,99774.52
2023-05-23T06:40:22.978Z,99777.48
2023-05-23T06:46:01.580Z,99777.30
2023-05-23T06:51:13.709Z,99777.52
2023-05-23T06:56:22.780Z,99772.24
2023-05-23T07:01:54.835Z,99766.34
2023-05-23T07:07:09.387Z,99762.95
2023-05-23T07:12:26.046Z,99769.20
2023-05-23T07:17:36.418Z,99754.38
2023-05-23T07:22:43.966Z,99745.55
2023-05-23T07:28:09.675Z,99740.13
2023-05-23T07:33:16.977Z,99733.27
2023-05-23T07:39:02.459Z,99732.91
2023-05-23T07:44:25.817Z,99727.14
2023-05-23T07:49:45.957Z,99726.57
2023-05-23T07:54:54.100Z,99714.98
2023-05-23T08:00:02.180Z,99704.16
2023-05-23T08:05:11.540Z,99700.48
2023-05-23T08:10:19.794Z,99704.73
2023-05-23T08:15:27.165Z,99707.39
2023-05-23T08:20:43.570Z,99717.25
2023-05-23T08:25:51.006Z,99721.48
2023-05-23T08:31:00.947Z,99726.68
2023-05-23T08:36:10.038Z,99729.05
2023-05-23T08:41:20.379Z,99729.67
2023-05-23T08:46:28.624Z,99739.71
2023-05-23T08:51:39.438Z,99739.42
2023-05-23T08:56:52.672Z,99739.16
2023-05-23T09:02:01.605Z,99742.98
2023-05-23T09:07:09.611Z,99743.33
2023-05-23T09:12:17.636Z,99745.64
2023-05-23T09:17:26.997Z,99750.77
2023-05-23T09:22:34.260Z,99747.25
2023-05-23T09:27:48.114Z,99747.50
2023-05-23T09:33:05.590Z,99751.16
2023-05-23T09:38:13.897Z,99760.02
2023-05-23T09:43:23.586Z,99765.31
2023-05-23T09:48:33.385Z,99767.33
2023-05-23T09:53:40.323Z,99764.92
2023-05-23T09:58:51.220Z,99764.04
2023-05-23T10:04:00.322Z,99774.17
2023-05-23T10:09:10.136Z,99777.33
2023-05-23T10:14:17.356Z,99767.50
2023-05-23T10:19:28.569Z,99766.73
2023-05-23T10:24:36.956Z,99779.58
2023-05-23T10:29:44.466Z,99777.02
2023-05-23T10:34:59.040Z,99778.80
2023-05-23T10:40:13.689Z,99776.64
2023-05-23T10:45:22.331Z,99783.35
2023-05-23T10:50:37.364Z,99785.23
2023-05-23T10:55:50.018Z,99784.11
2023-05-23T11:00:58.368Z,99782.33
2023-05-23T11:06:06.407Z,99773.48
2023-05-23T11:11:13.629Z,99769.67
2023-05-23T11:16:41.708Z,99772.16
2023-05-23T11:21:50.855Z,99770.86
2023-05-23T11:27:01.353Z,99767.39
2023-05-23T11:32:16.936Z,99762.27
2023-05-23T11:37:27.194Z,99756.95
2023-05-23T11:42:34.615Z,99750.05
2023-05-23T11:47:44.797Z,99750.25
2023-05-23T11:52:52.594Z,99748.40
2023-05-23T11:58:00.141Z,99743.00
2023-05-23T12:03:11.957Z,99739.85
2023-05-23T12:08:18.938Z,99740.55
2023-05-23T12:13:29.633Z,99745.06
2023-05-23T12:18:38.849Z,99749.39
2023-05-23T12:23:47.689Z,99750.95
2023-05-23T12:28:55.148Z,99748.93
2023-05-23T12:34:02.804Z,99743.52
2023-05-23T12:39:10.504Z,99745.73
2023-05-23T12:44:19.552Z,99744.44
2023-05-23T12:49:26.724Z,99748.45
2023-05-23T12:54:33.640Z,99748.38
2023-05-23T12:59:40.577Z,99744.59
2023-05-23T13:04:47.622Z,99730.77
2023-05-23T13:09:56.152Z,99729.67
2023-05-23T13:15:03.244Z,99726.10
2023-05-23T13:20:12.197Z,99718.89
2023-05-23T13:25:19.467Z,99720.36
2023-05-23T13:30:27.347Z,99707.84
2023-05-23T13:35:34.401Z,99699.86
2023-05-23T13:40:41.652Z,99704.70
2023-05-23T13:45:48.714Z,99702.13
2023-05-23T13:50:55.875Z,99700.65
2023-05-23T13:56:03.411Z,99701.33
2023-05-23T14:01:10.572Z,99701.08
2023-05-23T14:06:17.992Z,99703.50
2023-05-23T14:11:24.956Z,99704.02
2023-05-23T14:16:32.542Z,99709.59
2023-05-23T14:21:39.787Z,99708.41
2023-05-23T14:26:47.090Z,99712.91
2023-05-23T14:31:54.407Z,99716.36
2023-05-23T14:37:01.510Z,99723.31
2023-05-23T14:42:08.895Z,99724.61
2023-05-23T14:47:15.915Z,99725.48
2023-05-23T14:52:22.906Z,99724.66
2023-05-23T14:57:30.188Z,99723.81
2023-05-23T15:02:37.511Z,99722.20
2023-05-23T15:07:45.615Z,99721.77
2023-05-23T15:12:52.676Z,99719.40
2023-05-23T15:18:04.513Z,99722.80
2023-05-23T15:23:11.496Z,99720.36
2023-05-23T15:28:18.613Z,99721.35
2023-05-23T15:33:25.822Z,99718.60
2023-05-23T15:38:32.821Z,99711.21
2023-05-23T15:43:39.830Z,99707.15
2023-05-23T15:48:47.251Z,99709.66
2023-05-23T15:59:04.536Z,99699.34
2023-05-23T16:04:11.636Z,99696.43
2023-05-23T16:09:18.736Z,99692.73
2023-05-23T16:14:26.152Z,99693.25
2023-05-23T16:19:33.803Z,99686.52
2023-05-23T16:24:41.155Z,99687.31
2023-05-23T16:29:48.138Z,99690.36
2023-05-23T16:34:55.270Z,99688.71
2023-05-23T16:40:02.197Z,99686.98
2023-05-23T16:45:10.908Z,99680.39
2023-05-23T16:50:18.180Z,99678.64
2023-05-23T16:55:25.491Z,99687.84
2023-05-23T17:00:32.482Z,99692.35
2023-05-23T17:05:40.267Z,99693.91
2023-05-23T17:10:47.889Z,99697.79
2023-05-23T17:15:54.742Z,99713.22
2023-05-23T17:21:01.906Z,99716.36
2023-05-23T17:26:08.771Z,99727.39
2023-05-23T17:31:15.796Z,99731.01
2023-05-23T17:36:22.886Z,99735.73
2023-05-23T17:41:29.814Z,99741.26
2023-05-23T17:46:36.981Z,99753.12
2023-05-23T17:51:44.038Z,99751.75
2023-05-23T17:56:50.907Z,99753.52
2023-05-23T18:01:57.956Z,99758.95
2023-05-23T18:07:06.120Z,99763.55
2023-05-23T18:12:13.141Z,99767.46
2023-05-23T18:17:20.291Z,99773.33
2023-05-23T18:22:27.534Z,99784.76
2023-05-23T18:27:34.614Z,99795.44
2023-05-23T18:32:41.707Z,99800.52
2023-05-23T18:37:49.191Z,99815.81
2023-05-23T18:42:56.258Z,99830.63
2023-05-23T18:48:03.431Z,99837.95
2023-05-23T18:53:10.768Z,99851.32
2023-05-23T18:58:17.780Z,99850.59
2023-05-23T19:03:24.725Z,99855.00
2023-05-23T19:08:32.084Z,99858.25
2023-05-23T19:13:39.041Z,99865.85
2023-05-23T19:18:46.581Z,99869.86
2023-05-23T19:23:53.943Z,99868.55
2023-05-23T19:29:01.607Z,99872.41
2023-05-23T19:34:08.899Z,99876.45
2023-05-23T19:39:15.878Z,99871.21
2023-05-23T19:44:25.718Z,99870.59
2023-05-23T19:49:33.401Z,99875.57
2023-05-23T19:54:41.088Z,99880.86
2023-05-23T19:59:48.976Z,99886.95
2023-05-23T20:04:56.728Z,99885.81
2023-05-23T20:10:04.290Z,99888.33
2023-05-23T20:15:12.712Z,99896.98
2023-05-23T20:20:19.826Z,99906.38
2023-05-23T20:25:28.677Z,99915.81
2023-05-23T20:30:37.625Z,99919.27
2023-05-23T20:35:48.403Z,99922.30
2023-05-23T20:40:53.948Z,99915.84
2023-05-23T20:46:02.262Z,99918.77
2023-05-23T20:51:09.334Z,99923.71
2023-05-23T20:56:16.782Z,99935.05
2023-05-23T21:01:23.813Z,99941.13
2023-05-23T21:06:30.709Z,99951.45
2023-05-23T21:11:37.735Z,99949.91
2023-05-23T21:16:44.839Z,99949.95
2023-05-23T21:21:53.325Z,99948.71
2023-05-23T21:27:01.885Z,99954.98
2023-05-23T21:32:09.004Z,99960.17
2023-05-23T21:37:16.193Z,99968.43
2023-05-23T21:42:24.818Z,99971.95
2023-05-23T21:47:31.679Z,99970.86
2023-05-23T21:52:38.717Z,99972.27
2023-05-23T21:57:47.828Z,99968.66
2023-05-23T22:02:55.173Z,99965.93
2023-05-23T22:08:02.110Z,99964.96
2023-05-23T22:13:09.732Z,99974.34
2023-05-23T22:18:16.784Z,99982.14
2023-05-23T22:23:23.738Z,99990.02
2023-05-23T22:28:31.223Z,99992.89
2023-05-23T22:33:38.238Z,99997.91
2023-05-23T22:38:45.242Z,99999.30
2023-05-23T22:43:52.240Z,99995.50
2023-05-23T22:49:00.419Z,99995.80
2023-05-23T22:54:07.465Z,99997.27
2023-05-23T22:59:14.305Z,99999.10
2023-05-23T23:04:23.686Z,99998.94
2023-05-23T23:09:30.774Z,99996.73
2023-05-23T23:14:37.923Z,99996.40
2023-05-23T23:19:45.025Z,99997.92
2023-05-23T23:24:52.747Z,100000.20
2023-05-23T23:29:59.890Z,100002.33
2023-05-23T23:35:07.717Z,100001.97
2023-05-23T23:40:15.587Z,100004.68
2023-05-23T23:45:22.776Z,100005.17
2023-05-23T23:50:31.469Z,100005.64
2023-05-23T23:55:38.317Z,100007.95
